Time;durP1;ratioP1;P1;durP2;ratioP2;P2;SDS_P1;SDS_P2;PMS_P1;PMS_P2;Temp;Humidity;BMP_temperature;BMP_pressure;BME280_temperature;BME280_humidity;BME280_pressure;Samples;Min_cycle;Max_cycle;Signal;HPM_P1;HPM_P2
2023/12/29 00:01:00;;;;;;;;;;;;;;;;;;2206875;66;2459;-25
2023/12/29 00:03:31;;;;;;;;;;;;;;;;;;2208110;59;2273;-25
2023/12/29 00:06:04;;;;;;;;;;;;;;;;;;2207960;59;1989;-25
2023/12/29 00:08:36;;;;;;;;;;;;;;;;;;2209039;58;1878;-25
2023/12/29 00:11:06;;;;;;;;;;;;;;;;;;2209102;59;2053;-25
2023/12/29 00:13:36;;;;;;;;;;;;;;;;;;2209647;58;2514;-25
2023/12/29 00:16:07;;;;;;;;;;;;;;;;;;2208706;66;1843;-25
2023/12/29 00:18:38;;;;;;;;;;;;;;;;;;2210068;59;2133;-25
2023/12/29 00:21:08;;;;;;;;;;;;;;;;;;2208173;59;3027;-25
2023/12/29 00:23:38;;;;;;;;;;;;;;;;;;2209546;59;2763;-25
2023/12/29 00:26:08;;;;;;;;;;;;;;;;;;2208640;59;1900;-25
2023/12/29 00:28:40;;;;;;;;;;;;;;;;;;2208876;59;1734;-25
2023/12/29 00:31:15;;;;;;;;;;;;;;;;;;2208732;59;2165;-25
2023/12/29 04:21:44;;;;;;;;;;;;;;;;;;1589688;56;2945;-19
2023/12/29 04:24:14;;;;;;;;;;;;;;;;;;2206358;59;2252;-18
2023/12/29 04:26:44;;;;;;;;;;;;;;;;;;2208167;67;1902;-18
2023/12/29 04:29:15;;;;;;;;;;;;;;;;;;2208974;59;2189;-18
2023/12/29 04:31:45;;;;;;;;;;;;;;;;;;2208761;59;2371;-18
2023/12/29 04:34:15;;;;;;;;;;;;;;;;;;2207133;67;2386;-19
2023/12/29 04:36:46;;;;;;;;;;;;;;;;;;2207645;59;2106;-20
2023/12/29 04:39:16;;;;;;;;;;;;;;;;;;2205848;59;2114;-20
2023/12/29 04:41:46;;;;;;;;;;;;;;;;;;2207436;67;1826;-20
2023/12/29 04:44:17;;;;;;;;;;;;;;;;;;2206658;59;1855;-18
2023/12/29 04:46:47;;;;;;;;;;;;;;;;;;2207517;67;2003;-20
2023/12/29 04:49:17;;;;;;;;;;;;;;;;;;2207186;67;1806;-20
2023/12/29 04:51:49;;;;;;;;;;;;;;;;;;2204666;59;2021;-20
2023/12/29 04:54:20;;;;;;;;;;;;;;;;;;2200298;59;1808;-22
2023/12/29 04:56:51;;;;;;;;;;;;;;;;;;2203125;59;1736;-20
2023/12/29 04:59:23;;;;;;;;;;;;;;;;;;2205846;59;1935;-20
2023/12/29 05:01:53;;;;;;;;;;;;;;;;;;2207384;67;2112;-18
2023/12/29 05:04:23;;;;;;;;;;;;;;;;;;2207124;60;1887;-18
2023/12/29 05:06:54;;;;;;;;;;;;;;;;;;2207580;59;2099;-18
2023/12/29 05:09:24;;;;;;;;;;;;;;;;;;2206486;59;2002;-20
2023/12/29 05:11:54;;;;;;;;;;;;;;;;;;2208555;59;2526;-18
2023/12/29 05:14:25;;;;;;;;;;;;;;;;;;2208108;59;2705;-20
2023/12/29 05:16:55;;;;;;;;;;;;;;;;;;2208807;59;2436;-18
2023/12/29 05:19:25;;;;;;;;;;;;;;;;;;2208200;59;1985;-19
2023/12/29 05:21:56;;;;;;;;;;;;;;;;;;2209480;59;1483;-18
2023/12/29 05:24:27;;;;;;;;;;;;;;;;;;2200276;59;2734;-18
2023/12/29 05:26:58;;;;;;;;;;;;;;;;;;2205072;59;2270;-20
2023/12/29 05:29:28;;;;;;;;;;;;;;;;;;2204909;59;2226;-20
2023/12/29 05:31:59;;;;;;;;;;;;;;;;;;2209990;59;2511;-20
2023/12/29 05:34:29;;;;;;;;;;;;;;;;;;2208944;67;1789;-20
2023/12/29 05:36:59;;;;;;;;;;;;;;;;;;2209480;67;1747;-20
2023/12/29 05:39:30;;;;;;;;;;;;;;;;;;2207221;59;2233;-20
2023/12/29 05:42:00;;;;;;;;;;;;;;;;;;2207786;59;2287;-19
2023/12/29 05:44:30;;;;;;;;;;;;;;;;;;2208321;59;1845;-20
2023/12/29 05:47:01;;;;;;;;;;;;;;;;;;2208344;59;2402;-20
2023/12/29 05:49:38;;;;;;;;;;;;;;;;;;2208016;59;2706;-18
2023/12/29 05:52:09;;;;;;;;;;;;;;;;;;2207305;67;1930;-20
2023/12/29 05:54:39;;;;;;;;;;;;;;;;;;2207513;59;2655;-20
2023/12/29 05:57:10;;;;;;;;;;;;;;;;;;2208379;59;2062;-18
2023/12/29 05:59:40;;;;;;;;;;;;;;;;;;2207851;59;2484;-20
2023/12/29 06:02:11;;;;;;;;;;;;;;;;;;2208476;59;2866;-18
2023/12/29 06:04:41;;;;;;;;;;;;;;;;;;2207332;67;2075;-20
2023/12/29 06:07:11;;;;;;;;;;;;;;;;;;2208271;59;1986;-20
2023/12/29 06:09:42;;;;;;;;;;;;;;;;;;2206257;59;2260;-20
2023/12/29 06:12:12;;;;;;;;;;;;;;;;;;2208158;59;1985;-20
2023/12/29 06:14:42;;;;;;;;;;;;;;;;;;2206440;59;1870;-20
2023/12/29 06:17:13;;;;;;;;;;;;;;;;;;2208371;59;1766;-18
2023/12/29 06:19:43;;;;;;;;;;;;;;;;;;2207245;59;2561;-20
2023/12/29 06:22:15;;;;;;;;;;;;;;;;;;2207632;59;1816;-18
2023/12/29 06:24:46;;;;;;;;;;;;;;;;;;2205739;59;1889;-20
2023/12/29 06:27:17;;;;;;;;;;;;;;;;;;2206830;67;1763;-18
2023/12/29 06:29:48;;;;;;;;;;;;;;;;;;2203818;59;1902;-18
2023/12/29 06:32:20;;;;;;;;;;;;;;;;;;2207349;59;2445;-20
2023/12/29 06:34:51;;;;;;;;;;;;;;;;;;2206630;59;3226;-18
2023/12/29 06:37:21;;;;;;;;;;;;;;;;;;2205442;67;2394;-18
2023/12/29 06:39:52;;;;;;;;;;;;;;;;;;2206547;67;2084;-18
2023/12/29 06:42:22;;;;;;;;;;;;;;;;;;2208572;59;2731;-20
2023/12/29 06:44:54;;;;;;;;;;;;;;;;;;2202307;59;2577;-20
2023/12/29 06:47:25;;;;;;;;;;;;;;;;;;2201636;59;2263;-18
2023/12/29 06:49:57;;;;;;;;;;;;;;;;;;2208278;59;2218;-20
2023/12/29 06:52:30;;;;;;;;;;;;;;;;;;2205419;59;2135;-18
2023/12/29 06:55:01;;;;;;;;;;;;;;;;;;2206905;59;2283;-20
2023/12/29 06:57:31;;;;;;;;;;;;;;;;;;2206439;59;2753;-19
2023/12/29 07:00:02;;;;;;;;;;;;;;;;;;2207426;67;2211;-20
2023/12/29 07:02:33;;;;;;;;;;;;;;;;;;2207263;59;2366;-20
2023/12/29 07:05:03;;;;;;;;;;;;;;;;;;2207955;59;1839;-20
2023/12/29 07:07:34;;;;;;;;;;;;;;;;;;2206054;59;2474;-18
2023/12/29 07:10:06;;;;;;;;;;;;;;;;;;2207700;67;1812;-18
2023/12/29 07:12:36;;;;;;;;;;;;;;;;;;2206835;59;1931;-18
2023/12/29 07:15:06;;;;;;;;;;;;;;;;;;2207459;59;2402;-20
2023/12/29 07:17:37;;;;;;;;;;;;;;;;;;2206584;67;2119;-19
2023/12/29 07:20:08;;;;;;;;;;;;;;;;;;2207002;59;2227;-20
2023/12/29 07:22:38;;;;;;;;;;;;;;;;;;2206944;59;2772;-20
2023/12/29 07:25:09;;;;;;;;;;;;;;;;;;2207740;59;2160;-20
2023/12/29 07:27:40;;;;;;;;;;;;;;;;;;2206243;59;2492;-20
2023/12/29 07:30:10;;;;;;;;;;;;;;;;;;2207723;59;2063;-20
2023/12/29 07:32:41;;;;;;;;;;;;;;;;;;2206849;67;2166;-18
2023/12/29 07:35:11;;;;;;;;;;;;;;;;;;2208097;59;2764;-18
2023/12/29 07:37:41;;;;;;;;;;;;;;;;;;2206766;59;2575;-20
2023/12/29 07:40:12;;;;;;;;;;;;;;;;;;2206668;59;2171;-18
2023/12/29 07:42:46;;;;;;;;;;;;;;;;;;2203125;67;1976;-20
2023/12/29 07:45:17;;;;;;;;;;;;;;;;;;2208259;59;1781;-20
2023/12/29 07:47:49;;;;;;;;;;;;;;;;;;2205994;59;2162;-20
2023/12/29 07:50:22;;;;;;;;;;;;;;;;;;2205946;59;2433;-18
2023/12/29 07:52:54;;;;;;;;;;;;;;;;;;2204966;59;2055;-18
2023/12/29 07:55:28;;;;;;;;;;;;;;;;;;2201882;59;2147;-18
2023/12/29 07:57:59;;;;;;;;;;;;;;;;;;2205731;59;2425;-18
2023/12/29 08:00:30;;;;;;;;;;;;;;;;;;2200454;59;2032;-18
2023/12/29 08:03:02;;;;;;;;;;;;;;;;;;2204072;59;3799;-19
2023/12/29 08:05:33;;;;;;;;;;;;;;;;;;2207007;59;1795;-18
2023/12/29 08:08:04;;;;;;;;;;;;;;;;;;2213433;58;2803;-20
2023/12/29 08:10:35;;;;;;;;;;;;;;;;;;2211640;59;2593;-20
2023/12/29 08:13:08;;;;;;;;;;;;;;;;;;2210802;58;1824;-18
2023/12/29 08:15:39;;;;;;;;;;;;;;;;;;2211125;58;2542;-20
2023/12/29 08:18:10;;;;;;;;;;;;;;;;;;2210760;59;2161;-20
2023/12/29 08:20:40;;;;;;;;;;;;;;;;;;2206730;59;2377;-20
2023/12/29 08:23:11;;;;;;;;;;;;;;;;;;2209184;58;2398;-18
2023/12/29 08:25:42;;;;;;;;;;;;;;;;;;2208398;59;2512;-18
2023/12/29 08:28:14;;;;;;;;;;;;;;;;;;2209112;59;2132;-20
2023/12/29 08:30:46;;;;;;;;;;;;;;;;;;2205735;59;2764;-20
2023/12/29 08:33:16;;;;;;;;;;;;;;;;;;2208292;59;2281;-20
2023/12/29 08:35:47;;;;;;;;;;;;;;;;;;2211020;53;3068;-18
2023/12/29 08:38:17;;;;;;;;;;;;;;;;;;2212015;58;1819;-18
2023/12/29 08:40:48;;;;;;;;;;;;;;;;;;2208165;59;2032;-20
2023/12/29 08:43:21;;;;;;;;;;;;;;;;;;2207172;67;2228;-20
2023/12/29 08:45:51;;;;;;;;;;;;;;;;;;2205577;67;2755;-18
2023/12/29 08:48:22;;;;;;;;;;;;;;;;;;2207179;67;2018;-20
2023/12/29 08:50:52;;;;;;;;;;;;;;;;;;2207370;59;2086;-20
2023/12/29 08:53:23;;;;;;;;;;;;;;;;;;2206964;67;1846;-20
2023/12/29 08:55:54;;;;;;;;;;;;;;;;;;2206108;59;2003;-18
2023/12/29 08:58:24;;;;;;;;;;;;;;;;;;2207909;63;1775;-20
2023/12/29 09:00:54;;;;;;;;;;;;;;;;;;2205799;59;2163;-20
2023/12/29 09:03:24;;;;;;;;;;;;;;;;;;2208049;59;2049;-18
2023/12/29 09:05:56;;;;;;;;;;;;;;;;;;2208679;59;1851;-20
2023/12/29 09:08:28;;;;;;;;;;;;;;;;;;2207842;59;2464;-20
2023/12/29 09:10:59;;;;;;;;;;;;;;;;;;2210211;67;2097;-18
2023/12/29 09:13:29;;;;;;;;;;;;;;;;;;2206992;59;1844;-20
2023/12/29 09:16:00;;;;;;;;;;;;;;;;;;2204395;59;1749;-20
2023/12/29 09:18:31;;;;;;;;;;;;;;;;;;2206958;59;2566;-20
2023/12/29 09:21:03;;;;;;;;;;;;;;;;;;2203511;59;2148;-20
2023/12/29 09:23:37;;;;;;;;;;;;;;;;;;2206661;59;1617;-20
2023/12/29 09:26:08;;;;;;;;;;;;;;;;;;2206154;59;1861;-20
2023/12/29 09:28:44;;;;;;;;;;;;;;;;;;2206448;59;2138;-20
2023/12/29 09:31:15;;;;;;;;;;;;;;;;;;2207791;59;2580;-18
2023/12/29 09:33:45;;;;;;;;;;;;;;;;;;2205440;59;1998;-20
2023/12/29 09:36:16;;;;;;;;;;;;;;;;;;2207270;59;1616;-20
2023/12/29 09:38:47;;;;;;;;;;;;;;;;;;2208532;59;2343;-18
2023/12/29 09:41:17;;;;;;;;;;;;;;;;;;2206792;63;2994;-20
2023/12/29 09:43:49;;;;;;;;;;;;;;;;;;2206219;59;2015;-20
2023/12/29 09:46:23;;;;;;;;;;;;;;;;;;2206652;59;1740;-20
2023/12/29 09:48:56;;;;;;;;;;;;;;;;;;2203498;59;1818;-26
2023/12/29 09:51:28;;;;;;;;;;;;;;;;;;2200252;59;1924;-20
2023/12/29 09:53:59;;;;;;;;;;;;;;;;;;2206667;59;1900;-20
2023/12/29 09:56:30;;;;;;;;;;;;;;;;;;2207573;67;2754;-18
2023/12/29 09:59:02;;;;;;;;;;;;;;;;;;2202618;59;2406;-20
2023/12/29 10:01:34;;;;;;;;;;;;;;;;;;2205267;59;2254;-20
2023/12/29 10:04:06;;;;;;;;;;;;;;;;;;2204779;59;2422;-20
2023/12/29 10:06:39;;;;;;;;;;;;;;;;;;2202820;59;2061;-20
2023/12/29 10:09:11;;;;;;;;;;;;;;;;;;2203636;59;2050;-20
2023/12/29 10:11:44;;;;;;;;;;;;;;;;;;2206470;59;2039;-20
2023/12/29 10:14:22;;;;;;;;;;;;;;;;;;2209556;59;2269;-18
2023/12/29 10:17:19;;;;;;;;;;;;;;;;;;2205491;59;1686;-20
2023/12/29 10:20:02;;;;;;;;;;;;;;;;;;2203130;59;1892;-19
2023/12/29 10:22:44;;;;;;;;;;;;;;;;;;2207150;59;1941;-19
2023/12/29 10:25:17;;;;;;;;;;;;;;;;;;2207041;59;1609;-20
2023/12/29 10:27:48;;;;;;;;;;;;;;;;;;2205433;59;2277;-20
2023/12/29 10:30:20;;;;;;;;;;;;;;;;;;2204696;59;1853;-20
2023/12/29 10:32:52;;;;;;;;;;;;;;;;;;2204983;59;2423;-18
2023/12/29 10:35:23;;;;;;;;;;;;;;;;;;2207275;59;2208;-19
2023/12/29 10:37:54;;;;;;;;;;;;;;;;;;2206520;59;1898;-20
2023/12/29 10:40:25;;;;;;;;;;;;;;;;;;2207667;67;1829;-18
2023/12/29 10:42:57;;;;;;;;;;;;;;;;;;2206548;59;2223;-20
2023/12/29 10:45:28;;;;;;;;;;;;;;;;;;2206730;67;2006;-20
2023/12/29 10:48:01;;;;;;;;;;;;;;;;;;2203046;59;2025;-20
2023/12/29 10:50:42;;;;;;;;;;;;;;;;;;2205560;67;1847;-18
2023/12/29 10:53:13;;;;;;;;;;;;;;;;;;2206949;59;2218;-20
2023/12/29 10:55:49;;;;;;;;;;;;;;;;;;2206456;67;1800;-18
2023/12/29 10:58:20;;;;;;;;;;;;;;;;;;2208362;59;2603;-18
2023/12/29 11:00:53;;;;;;;;;;;;;;;;;;2207270;59;2278;-19
2023/12/29 11:03:25;;;;;;;;;;;;;;;;;;2207679;59;2002;-20
2023/12/29 11:06:01;;;;;;;;;;;;;;;;;;2206424;59;2004;-18
2023/12/29 11:08:35;;;;;;;;;;;;;;;;;;2210489;58;1731;-21
2023/12/29 11:11:07;;;;;;;;;;;;;;;;;;2207834;67;2357;-20
2023/12/29 11:13:37;;;;;;;;;;;;;;;;;;2209444;58;1911;-19
2023/12/29 11:16:09;;;;;;;;;;;;;;;;;;2206650;59;2389;-20
2023/12/29 11:18:41;;;;;;;;;;;;;;;;;;2208556;59;1864;-18
2023/12/29 11:21:13;;;;;;;;;;;;;;;;;;2207199;67;1782;-20
2023/12/29 11:23:43;;;;;;;;;;;;;;;;;;2206748;59;1881;-20
2023/12/29 11:26:15;;;;;;;;;;;;;;;;;;2205723;67;2278;-20
2023/12/29 11:28:48;;;;;;;;;;;;;;;;;;2204255;59;2126;-20
2023/12/29 11:31:19;;;;;;;;;;;;;;;;;;2206317;59;1998;-20
2023/12/29 11:34:03;;;;;;;;;;;;;;;;;;2206474;59;2045;-18
2023/12/29 11:36:35;;;;;;;;;;;;;;;;;;2208096;59;2097;-20
2023/12/29 11:39:11;;;;;;;;;;;;;;;;;;2206608;59;2274;-19
2023/12/29 11:41:50;;;;;;;;;;;;;;;;;;2207143;67;2742;-19
2023/12/29 11:44:27;;;;;;;;;;;;;;;;;;2206252;64;1933;-18
2023/12/29 11:46:58;;;;;;;;;;;;;;;;;;2205707;59;1901;-20
2023/12/29 11:49:48;;;;;;;;;;;;;;;;;;2205826;67;2247;-20
2023/12/29 11:52:32;;;;;;;;;;;;;;;;;;2206892;67;1963;-19
2023/12/29 11:55:10;;;;;;;;;;;;;;;;;;2206117;59;2257;-20
2023/12/29 11:57:41;;;;;;;;;;;;;;;;;;2208721;58;2720;-20
2023/12/29 12:00:11;;;;;;;;;;;;;;;;;;2207397;59;2174;-19
2023/12/29 12:02:42;;;;;;;;;;;;;;;;;;2203804;67;2335;-18
2023/12/29 12:05:32;;;;;;;;;;;;;;;;;;2205466;59;2033;-20
2023/12/29 12:08:03;;;;;;;;;;;;;;;;;;2206158;59;2074;-20
2023/12/29 12:10:38;;;;;;;;;;;;;;;;;;2205841;59;2172;-22
2023/12/29 12:13:09;;;;;;;;;;;;;;;;;;2206972;59;2007;-21
2023/12/29 12:15:41;;;;;;;;;;;;;;;;;;2202508;62;2068;-18
2023/12/29 12:18:13;;;;;;;;;;;;;;;;;;2206240;59;2179;-18
2023/12/29 12:20:50;;;;;;;;;;;;;;;;;;2202138;59;1776;-19
2023/12/29 12:23:24;;;;;;;;;;;;;;;;;;2203667;59;1736;-19
2023/12/29 12:26:00;;;;;;;;;;;;;;;;;;2204796;59;1783;-18
2023/12/29 12:28:31;;;;;;;;;;;;;;;;;;2206896;59;1743;-18
2023/12/29 12:31:08;;;;;;;;;;;;;;;;;;2203472;59;2600;-18
2023/12/29 12:33:40;;;;;;;;;;;;;;;;;;2204143;59;2042;-19
2023/12/29 12:36:11;;;;;;;;;;;;;;;;;;2202714;59;1792;-18
2023/12/29 12:38:51;;;;;;;;;;;;;;;;;;2206538;59;2280;-18
2023/12/29 12:41:24;;;;;;;;;;;;;;;;;;2207643;59;2334;-20
2023/12/29 12:44:10;;;;;;;;;;;;;;;;;;2206817;59;2074;-20
2023/12/29 12:46:46;;;;;;;;;;;;;;;;;;2206495;59;1973;-19
2023/12/29 12:49:18;;;;;;;;;;;;;;;;;;2206807;59;2698;-20
2023/12/29 12:51:49;;;;;;;;;;;;;;;;;;2207412;59;1948;-18
2023/12/29 12:54:20;;;;;;;;;;;;;;;;;;2204418;59;2251;-22
2023/12/29 12:56:52;;;;;;;;;;;;;;;;;;2205844;59;2628;-18
2023/12/29 12:59:23;;;;;;;;;;;;;;;;;;2204766;59;2311;-18
2023/12/29 13:01:54;;;;;;;;;;;;;;;;;;2208775;59;1971;-18
2023/12/29 13:04:25;;;;;;;;;;;;;;;;;;2208436;59;1990;-20
2023/12/29 13:06:57;;;;;;;;;;;;;;;;;;2205214;59;1753;-20
2023/12/29 13:09:29;;;;;;;;;;;;;;;;;;2204883;59;2204;-20
2023/12/29 13:12:13;;;;;;;;;;;;;;;;;;2201922;59;1945;-18
2023/12/29 13:14:46;;;;;;;;;;;;;;;;;;2208276;59;1885;-20
2023/12/29 13:17:17;;;;;;;;;;;;;;;;;;2210395;59;1832;-20
2023/12/29 13:19:55;;;;;;;;;;;;;;;;;;2208033;59;1868;-20
2023/12/29 13:22:29;;;;;;;;;;;;;;;;;;2208020;59;2026;-22
2023/12/29 13:25:08;;;;;;;;;;;;;;;;;;2204173;59;2050;-18
2023/12/29 13:27:40;;;;;;;;;;;;;;;;;;2203525;59;2424;-18
2023/12/29 13:30:12;;;;;;;;;;;;;;;;;;2207729;59;2366;-18
2023/12/29 13:32:42;;;;;;;;;;;;;;;;;;2209044;67;2031;-18
2023/12/29 13:35:31;;;;;;;;;;;;;;;;;;2209513;59;2072;-18
2023/12/29 13:38:07;;;;;;;;;;;;;;;;;;2207994;59;2303;-18
2023/12/29 13:40:37;;;;;;;;;;;;;;;;;;2208356;59;1871;-18
2023/12/29 13:43:08;;;;;;;;;;;;;;;;;;2207455;59;2021;-18
2023/12/29 13:45:39;;;;;;;;;;;;;;;;;;2207372;59;1865;-18
2023/12/29 13:48:11;;;;;;;;;;;;;;;;;;2207475;59;2202;-18
2023/12/29 13:50:48;;;;;;;;;;;;;;;;;;2209585;67;1884;-18
2023/12/29 13:53:46;;;;;;;;;;;;;;;;;;2207572;59;2052;-18
2023/12/29 13:56:17;;;;;;;;;;;;;;;;;;2207748;59;2283;-18
2023/12/29 13:58:51;;;;;;;;;;;;;;;;;;2206574;67;1808;-18
2023/12/29 14:01:22;;;;;;;;;;;;;;;;;;2207339;59;2251;-18
2023/12/29 14:04:00;;;;;;;;;;;;;;;;;;2207117;67;2107;-18
2023/12/29 14:06:50;;;;;;;;;;;;;;;;;;2208933;59;1997;-18
2023/12/29 14:09:21;;;;;;;;;;;;;;;;;;2207925;59;1976;-18
2023/12/29 14:11:51;;;;;;;;;;;;;;;;;;2208054;59;1989;-18
2023/12/29 14:14:24;;;;;;;;;;;;;;;;;;2209317;59;1903;-18
2023/12/29 14:16:55;;;;;;;;;;;;;;;;;;2206157;67;2054;-18
2023/12/29 14:19:26;;;;;;;;;;;;;;;;;;2206706;67;2661;-18
2023/12/29 14:21:56;;;;;;;;;;;;;;;;;;2207454;67;1872;-18
2023/12/29 14:24:26;;;;;;;;;;;;;;;;;;2207850;59;2230;-18
2023/12/29 14:26:58;;;;;;;;;;;;;;;;;;2205365;67;1879;-18
2023/12/29 14:29:29;;;;;;;;;;;;;;;;;;2206795;59;2172;-18
2023/12/29 14:31:59;;;;;;;;;;;;;;;;;;2207031;59;2603;-18
2023/12/29 14:34:30;;;;;;;;;;;;;;;;;;2206957;67;2044;-18
2023/12/29 14:37:00;;;;;;;;;;;;;;;;;;2206879;59;2492;-18
2023/12/29 14:39:31;;;;;;;;;;;;;;;;;;2207860;59;1776;-18
2023/12/29 14:42:02;;;;;;;;;;;;;;;;;;2205765;67;2126;-18
2023/12/29 14:44:34;;;;;;;;;;;;;;;;;;2208417;59;2680;-18
2023/12/29 14:47:04;;;;;;;;;;;;;;;;;;2206603;67;2255;-18
2023/12/29 14:49:34;;;;;;;;;;;;;;;;;;2206646;59;2106;-18
2023/12/29 14:52:05;;;;;;;;;;;;;;;;;;2205236;59;2942;-18
2023/12/29 14:54:37;;;;;;;;;;;;;;;;;;2207800;67;1939;-18
2023/12/29 14:57:10;;;;;;;;;;;;;;;;;;2209174;67;1883;-18
2023/12/29 14:59:59;;;;;;;;;;;;;;;;;;2206736;59;1831;-18
2023/12/29 15:02:29;;;;;;;;;;;;;;;;;;2207884;59;3215;-18
2023/12/29 15:05:00;;;;;;;;;;;;;;;;;;2206747;67;1867;-18
2023/12/29 15:07:36;;;;;;;;;;;;;;;;;;2207661;59;1873;-18
2023/12/29 15:10:07;;;;;;;;;;;;;;;;;;2205836;67;1949;-18
2023/12/29 15:12:38;;;;;;;;;;;;;;;;;;2207727;59;1952;-18
2023/12/29 15:15:10;;;;;;;;;;;;;;;;;;2207780;59;2353;-18
2023/12/29 15:17:40;;;;;;;;;;;;;;;;;;2210122;58;2579;-18
2023/12/29 15:20:14;;;;;;;;;;;;;;;;;;2211324;59;2115;-18
2023/12/29 15:22:45;;;;;;;;;;;;;;;;;;2205317;67;2249;-18
2023/12/29 15:25:15;;;;;;;;;;;;;;;;;;2206152;59;1877;-18
2023/12/29 15:27:46;;;;;;;;;;;;;;;;;;2208075;67;2232;-18
2023/12/29 15:30:16;;;;;;;;;;;;;;;;;;2206451;59;2070;-18
2023/12/29 15:32:53;;;;;;;;;;;;;;;;;;2207738;59;2068;-18
2023/12/29 15:35:23;;;;;;;;;;;;;;;;;;2207222;59;2285;-18
2023/12/29 15:37:55;;;;;;;;;;;;;;;;;;2206804;67;1791;-18
2023/12/29 15:40:25;;;;;;;;;;;;;;;;;;2207510;67;2564;-18
2023/12/29 15:42:56;;;;;;;;;;;;;;;;;;2207181;67;2219;-18
2023/12/29 15:45:26;;;;;;;;;;;;;;;;;;2208268;67;1832;-18
2023/12/29 15:47:57;;;;;;;;;;;;;;;;;;2207089;67;1856;-18
2023/12/29 15:50:27;;;;;;;;;;;;;;;;;;2207090;67;1909;-18
2023/12/29 15:52:58;;;;;;;;;;;;;;;;;;2207398;67;2430;-18
2023/12/29 15:55:40;;;;;;;;;;;;;;;;;;2207999;67;1957;-20
2023/12/29 15:58:10;;;;;;;;;;;;;;;;;;2204821;59;1839;-20
2023/12/29 16:00:41;;;;;;;;;;;;;;;;;;2206540;67;1977;-20
2023/12/29 16:03:11;;;;;;;;;;;;;;;;;;2205448;59;3517;-20
2023/12/29 16:05:41;;;;;;;;;;;;;;;;;;2206485;67;3709;-20
2023/12/29 16:08:12;;;;;;;;;;;;;;;;;;2207421;59;1920;-20
2023/12/29 16:10:42;;;;;;;;;;;;;;;;;;2207239;59;2021;-20
2023/12/29 16:13:16;;;;;;;;;;;;;;;;;;2206791;59;1985;-20
2023/12/29 16:15:46;;;;;;;;;;;;;;;;;;2206593;67;1920;-20
2023/12/29 16:18:17;;;;;;;;;;;;;;;;;;2205463;67;2237;-20
2023/12/29 16:20:47;;;;;;;;;;;;;;;;;;2206206;67;1930;-20
2023/12/29 16:23:17;;;;;;;;;;;;;;;;;;2207887;67;2021;-20
2023/12/29 16:25:48;;;;;;;;;;;;;;;;;;2208579;59;1923;-20
2023/12/29 16:28:18;;;;;;;;;;;;;;;;;;2205748;67;1967;-20
2023/12/29 16:30:49;;;;;;;;;;;;;;;;;;2206296;59;2344;-20
2023/12/29 16:33:19;;;;;;;;;;;;;;;;;;2205979;67;2480;-20
2023/12/29 16:35:49;;;;;;;;;;;;;;;;;;2209092;59;2149;-20
2023/12/29 16:38:21;;;;;;;;;;;;;;;;;;2207701;59;2876;-20
2023/12/29 16:40:51;;;;;;;;;;;;;;;;;;2211352;59;1881;-20
2023/12/29 16:43:22;;;;;;;;;;;;;;;;;;2205922;59;2040;-20
2023/12/29 16:45:52;;;;;;;;;;;;;;;;;;2207441;67;2020;-20
2023/12/29 16:48:22;;;;;;;;;;;;;;;;;;2205836;67;2652;-20
2023/12/29 16:50:52;;;;;;;;;;;;;;;;;;2205159;67;2120;-20
2023/12/29 16:53:23;;;;;;;;;;;;;;;;;;2205736;67;1876;-20
2023/12/29 16:55:54;;;;;;;;;;;;;;;;;;2206521;59;2432;-20
2023/12/29 16:58:24;;;;;;;;;;;;;;;;;;2205953;66;2341;-20
2023/12/29 17:01:11;;;;;;;;;;;;;;;;;;2206697;67;2657;-20
2023/12/29 17:03:41;;;;;;;;;;;;;;;;;;2208047;59;2342;-20
2023/12/29 17:06:12;;;;;;;;;;;;;;;;;;2205367;59;2529;-20
2023/12/29 17:08:42;;;;;;;;;;;;;;;;;;2206583;59;2175;-20
2023/12/29 17:11:19;;;;;;;;;;;;;;;;;;2207618;59;2146;-20
2023/12/29 17:13:49;;;;;;;;;;;;;;;;;;2206821;59;2209;-20
2023/12/29 17:16:29;;;;;;;;;;;;;;;;;;2205736;59;2010;-20
2023/12/29 17:19:00;;;;;;;;;;;;;;;;;;2206138;67;2127;-21
2023/12/29 17:21:30;;;;;;;;;;;;;;;;;;2206572;67;2600;-20
2023/12/29 17:24:00;;;;;;;;;;;;;;;;;;2206065;59;1834;-20
2023/12/29 17:26:31;;;;;;;;;;;;;;;;;;2208480;59;1901;-20
2023/12/29 17:29:01;;;;;;;;;;;;;;;;;;2206602;59;3558;-20
2023/12/29 17:31:31;;;;;;;;;;;;;;;;;;2206655;59;2041;-20
2023/12/29 17:34:02;;;;;;;;;;;;;;;;;;2207930;59;2404;-20
2023/12/29 17:36:33;;;;;;;;;;;;;;;;;;2207048;59;2652;-20
2023/12/29 17:39:05;;;;;;;;;;;;;;;;;;2207711;59;2073;-20
2023/12/29 17:41:35;;;;;;;;;;;;;;;;;;2206544;59;1903;-20
2023/12/29 17:44:05;;;;;;;;;;;;;;;;;;2203139;67;1813;-20
2023/12/29 17:46:36;;;;;;;;;;;;;;;;;;2209664;59;1976;-20
2023/12/29 17:49:06;;;;;;;;;;;;;;;;;;2207720;67;1922;-20
2023/12/29 17:51:37;;;;;;;;;;;;;;;;;;2206797;67;1910;-20
2023/12/29 17:54:07;;;;;;;;;;;;;;;;;;2206430;59;2161;-20
2023/12/29 17:56:39;;;;;;;;;;;;;;;;;;2208026;59;1792;-20
2023/12/29 17:59:09;;;;;;;;;;;;;;;;;;2205701;67;1980;-20
2023/12/29 18:01:40;;;;;;;;;;;;;;;;;;2207510;59;2332;-20
2023/12/29 18:04:11;;;;;;;;;;;;;;;;;;2206671;67;2665;-20
2023/12/29 18:06:41;;;;;;;;;;;;;;;;;;2206669;59;1997;-20
2023/12/29 18:09:13;;;;;;;;;;;;;;;;;;2205092;67;2080;-20
2023/12/29 18:11:44;;;;;;;;;;;;;;;;;;2207938;67;1979;-20
2023/12/29 18:14:14;;;;;;;;;;;;;;;;;;2205475;59;1838;-20
2023/12/29 18:16:57;;;;;;;;;;;;;;;;;;2206748;66;1865;-20
2023/12/29 18:19:28;;;;;;;;;;;;;;;;;;2204247;67;1918;-20
2023/12/29 18:22:32;;;;;;;;;;;;;;;;;;2207220;67;1779;-20
2023/12/29 18:25:03;;;;;;;;;;;;;;;;;;2207339;59;1807;-20
2023/12/29 18:27:34;;;;;;;;;;;;;;;;;;2207511;67;1843;-20
2023/12/29 18:30:04;;;;;;;;;;;;;;;;;;2206638;59;1938;-20
2023/12/29 18:32:34;;;;;;;;;;;;;;;;;;2208262;59;2261;-20
2023/12/29 18:35:05;;;;;;;;;;;;;;;;;;2205582;59;2520;-20
2023/12/29 18:37:36;;;;;;;;;;;;;;;;;;2209403;67;1965;-20
2023/12/29 18:40:07;;;;;;;;;;;;;;;;;;2206333;59;2203;-20
2023/12/29 18:42:38;;;;;;;;;;;;;;;;;;2207459;59;2445;-20
2023/12/29 18:45:09;;;;;;;;;;;;;;;;;;2207022;67;1817;-20
2023/12/29 18:47:39;;;;;;;;;;;;;;;;;;2207950;67;1856;-20
2023/12/29 18:50:09;;;;;;;;;;;;;;;;;;2206345;67;1865;-20
2023/12/29 18:52:40;;;;;;;;;;;;;;;;;;2206837;67;2093;-20
2023/12/29 18:55:11;;;;;;;;;;;;;;;;;;2208736;59;1800;-20
2023/12/29 18:57:41;;;;;;;;;;;;;;;;;;2206405;67;1812;-20
2023/12/29 19:00:12;;;;;;;;;;;;;;;;;;2207830;67;1852;-20
2023/12/29 19:02:45;;;;;;;;;;;;;;;;;;2206629;67;2465;-20
2023/12/29 19:05:16;;;;;;;;;;;;;;;;;;2205658;67;1896;-20
2023/12/29 19:07:47;;;;;;;;;;;;;;;;;;2208046;59;1917;-20
2023/12/29 19:10:20;;;;;;;;;;;;;;;;;;2202579;67;1972;-20
2023/12/29 19:12:51;;;;;;;;;;;;;;;;;;2207632;67;1995;-20
2023/12/29 19:15:23;;;;;;;;;;;;;;;;;;2206318;59;1956;-20
2023/12/29 19:17:54;;;;;;;;;;;;;;;;;;2210787;67;1934;-20
2023/12/29 19:20:26;;;;;;;;;;;;;;;;;;2207591;67;1943;-20
2023/12/29 19:22:57;;;;;;;;;;;;;;;;;;2208529;67;2077;-20
2023/12/29 19:25:29;;;;;;;;;;;;;;;;;;2206205;59;2491;-20
2023/12/29 19:28:02;;;;;;;;;;;;;;;;;;2207383;67;1814;-20
2023/12/29 19:30:33;;;;;;;;;;;;;;;;;;2206307;59;2379;-20
2023/12/29 19:33:06;;;;;;;;;;;;;;;;;;2209623;53;2394;-22
2023/12/29 19:35:38;;;;;;;;;;;;;;;;;;2208227;58;2103;-22
2023/12/29 19:38:08;;;;;;;;;;;;;;;;;;2208099;58;1831;-22
2023/12/29 19:40:38;;;;;;;;;;;;;;;;;;2210121;66;2340;-22
2023/12/29 19:43:09;;;;;;;;;;;;;;;;;;2207448;58;1978;-22
2023/12/29 19:45:40;;;;;;;;;;;;;;;;;;2205720;67;2450;-22
2023/12/29 19:48:11;;;;;;;;;;;;;;;;;;2205142;67;1848;-22
2023/12/29 19:50:45;;;;;;;;;;;;;;;;;;2207179;59;2332;-22
2023/12/29 19:53:18;;;;;;;;;;;;;;;;;;2204427;59;1960;-22
2023/12/29 19:55:52;;;;;;;;;;;;;;;;;;2207150;67;2118;-22
2023/12/29 19:58:22;;;;;;;;;;;;;;;;;;2206284;59;2038;-23
2023/12/29 20:00:53;;;;;;;;;;;;;;;;;;2205925;67;1771;-22
2023/12/29 20:03:24;;;;;;;;;;;;;;;;;;2204591;67;2592;-22
2023/12/29 20:05:57;;;;;;;;;;;;;;;;;;2204286;59;2506;-22
2023/12/29 20:08:28;;;;;;;;;;;;;;;;;;2204612;59;2033;-22
2023/12/29 20:10:59;;;;;;;;;;;;;;;;;;2207042;67;1859;-22
2023/12/29 20:13:31;;;;;;;;;;;;;;;;;;2203626;59;2179;-22
2023/12/29 20:16:03;;;;;;;;;;;;;;;;;;2204642;59;2549;-22
2023/12/29 20:18:35;;;;;;;;;;;;;;;;;;2204113;59;1853;-22
2023/12/29 20:21:06;;;;;;;;;;;;;;;;;;2204101;67;2162;-22
2023/12/29 20:23:38;;;;;;;;;;;;;;;;;;2206293;67;2513;-22
2023/12/29 20:26:09;;;;;;;;;;;;;;;;;;2204069;67;2198;-22
2023/12/29 20:28:40;;;;;;;;;;;;;;;;;;2205580;59;1793;-23
2023/12/29 20:31:20;;;;;;;;;;;;;;;;;;2207344;59;2127;-22
2023/12/29 20:33:50;;;;;;;;;;;;;;;;;;2206008;59;2033;-22
2023/12/29 20:36:21;;;;;;;;;;;;;;;;;;2204699;67;1843;-22
2023/12/29 20:38:55;;;;;;;;;;;;;;;;;;2206496;67;1984;-22
2023/12/29 20:41:25;;;;;;;;;;;;;;;;;;2207891;66;1618;-23
2023/12/29 20:43:56;;;;;;;;;;;;;;;;;;2204850;59;3015;-22
2023/12/29 20:46:26;;;;;;;;;;;;;;;;;;2204959;59;2077;-22
2023/12/29 20:48:56;;;;;;;;;;;;;;;;;;2207194;59;1415;-22
2023/12/29 20:51:27;;;;;;;;;;;;;;;;;;2206652;59;2348;-22
2023/12/29 20:53:57;;;;;;;;;;;;;;;;;;2206609;59;1523;-22
2023/12/29 20:56:27;;;;;;;;;;;;;;;;;;2204821;59;2532;-22
2023/12/29 20:58:58;;;;;;;;;;;;;;;;;;2207892;59;1913;-22
2023/12/29 21:01:28;;;;;;;;;;;;;;;;;;2206355;59;2070;-23
2023/12/29 21:03:58;;;;;;;;;;;;;;;;;;2204931;59;1576;-23
2023/12/29 21:06:31;;;;;;;;;;;;;;;;;;2206308;59;1467;-22
2023/12/29 21:09:01;;;;;;;;;;;;;;;;;;2206990;59;1244;-22
2023/12/29 21:11:34;;;;;;;;;;;;;;;;;;2206128;67;1941;-22
2023/12/29 21:14:05;;;;;;;;;;;;;;;;;;2206346;59;1977;-23
2023/12/29 21:16:35;;;;;;;;;;;;;;;;;;2206205;59;1626;-22
2023/12/29 21:19:05;;;;;;;;;;;;;;;;;;2209468;66;1447;-22
2023/12/29 21:21:36;;;;;;;;;;;;;;;;;;2206003;59;1918;-23
2023/12/29 21:24:10;;;;;;;;;;;;;;;;;;2205955;59;1648;-22